Marion Island, South Africa
Current Conditions -  °F | °C
As of 12:00 PM on Monday 20 Oct 2014 (Local Time) from FAEL Reporting Station
Scattered Clouds Scattered Clouds  
Wind Chill: 66°   Ceiling: Unl
Heat Index: 66°   Visibility: 6mi
Dew Point: 57°   Wind: 15mph
Humidity: 73%   Direction: 80°E
Pressure: 30.15"   Gusts: NA
Location:  46.9°S, 37.75°E
Report Text: FAEL 201000Z 08013KT 9999 SCT017 SCT044 19/14 Q1021
Loading
Personal Weather Stations






























Interactive Weather Map
Tropical Storm Tracking
New forecast layout! Learn more

10-Day Weather Forecast

Advertisements
Track Severe Weather on mobile